sensor_id;sensor_type;location;lat;lon;timestamp;temperature;humidity
23803;DHT22;12082;51.786;6.018;2023-12-20T00:00:17;6.10;99.90
23803;DHT22;12082;51.786;6.018;2023-12-20T00:02:42;6.10;99.90
23803;DHT22;12082;51.786;6.018;2023-12-20T00:05:15;6.10;99.90
23803;DHT22;12082;51.786;6.018;2023-12-20T00:07:40;6.10;99.90
23803;DHT22;12082;51.786;6.018;2023-12-20T00:10:06;6.00;99.90
23803;DHT22;12082;51.786;6.018;2023-12-20T00:12:32;6.00;99.90
23803;DHT22;12082;51.786;6.018;2023-12-20T00:14:58;6.00;99.90
23803;DHT22;12082;51.786;6.018;2023-12-20T00:17:23;6.00;99.90
23803;DHT22;12082;51.786;6.018;2023-12-20T00:19:49;6.00;99.90
23803;DHT22;12082;51.786;6.018;2023-12-20T00:22:14;6.00;99.90
23803;DHT22;12082;51.786;6.018;2023-12-20T00:24:40;5.90;99.90
23803;DHT22;12082;51.786;6.018;2023-12-20T00:27:05;5.80;99.90
23803;DHT22;12082;51.786;6.018;2023-12-20T00:29:31;5.80;99.90
23803;DHT22;12082;51.786;6.018;2023-12-20T00:31:57;5.80;99.90
23803;DHT22;12082;51.786;6.018;2023-12-20T00:34:22;5.80;99.90
23803;DHT22;12082;51.786;6.018;2023-12-20T00:36:48;5.80;99.90
23803;DHT22;12082;51.786;6.018;2023-12-20T00:39:13;5.90;99.90
23803;DHT22;12082;51.786;6.018;2023-12-20T00:41:39;5.90;99.90
23803;DHT22;12082;51.786;6.018;2023-12-20T00:44:04;6.00;99.90
23803;DHT22;12082;51.786;6.018;2023-12-20T00:46:30;6.00;99.90
23803;DHT22;12082;51.786;6.018;2023-12-20T00:48:56;6.10;99.90
23803;DHT22;12082;51.786;6.018;2023-12-20T00:51:22;6.00;99.90
23803;DHT22;12082;51.786;6.018;2023-12-20T00:53:49;6.00;99.90
23803;DHT22;12082;51.786;6.018;2023-12-20T00:56:15;5.90;99.90
23803;DHT22;12082;51.786;6.018;2023-12-20T00:58:41;5.90;99.90
23803;DHT22;12082;51.786;6.018;2023-12-20T01:01:06;5.80;99.90
23803;DHT22;12082;51.786;6.018;2023-12-20T01:03:32;5.80;99.90
23803;DHT22;12082;51.786;6.018;2023-12-20T01:05:57;5.70;99.90
23803;DHT22;12082;51.786;6.018;2023-12-20T01:08:23;5.70;99.90
23803;DHT22;12082;51.786;6.018;2023-12-20T01:10:48;5.70;99.90
23803;DHT22;12082;51.786;6.018;2023-12-20T01:13:14;5.60;99.90
23803;DHT22;12082;51.786;6.018;2023-12-20T01:15:39;5.50;99.90
23803;DHT22;12082;51.786;6.018;2023-12-20T01:18:05;5.50;99.90
23803;DHT22;12082;51.786;6.018;2023-12-20T01:20:31;5.50;99.90
23803;DHT22;12082;51.786;6.018;2023-12-20T01:22:56;5.50;99.90
23803;DHT22;12082;51.786;6.018;2023-12-20T01:25:22;5.50;99.90
23803;DHT22;12082;51.786;6.018;2023-12-20T01:27:48;5.40;99.90
23803;DHT22;12082;51.786;6.018;2023-12-20T01:30:14;5.50;99.90
23803;DHT22;12082;51.786;6.018;2023-12-20T01:32:40;5.50;99.90
23803;DHT22;12082;51.786;6.018;2023-12-20T01:35:05;5.30;99.90
23803;DHT22;12082;51.786;6.018;2023-12-20T01:37:31;5.30;99.90
23803;DHT22;12082;51.786;6.018;2023-12-20T01:39:57;5.30;99.90
23803;DHT22;12082;51.786;6.018;2023-12-20T01:42:24;5.30;99.90
23803;DHT22;12082;51.786;6.018;2023-12-20T01:44:49;5.40;99.90
23803;DHT22;12082;51.786;6.018;2023-12-20T01:47:15;5.40;99.90
23803;DHT22;12082;51.786;6.018;2023-12-20T01:49:41;5.40;99.90
23803;DHT22;12082;51.786;6.018;2023-12-20T01:52:08;5.30;99.90
23803;DHT22;12082;51.786;6.018;2023-12-20T01:54:34;5.30;99.90
23803;DHT22;12082;51.786;6.018;2023-12-20T01:57:01;5.30;99.90
23803;DHT22;12082;51.786;6.018;2023-12-20T01:59:27;5.30;99.90
23803;DHT22;12082;51.786;6.018;2023-12-20T02:01:53;5.20;99.90
23803;DHT22;12082;51.786;6.018;2023-12-20T02:04:19;5.10;99.90
23803;DHT22;12082;51.786;6.018;2023-12-20T02:06:46;5.20;99.90
23803;DHT22;12082;51.786;6.018;2023-12-20T02:09:12;5.20;99.90
23803;DHT22;12082;51.786;6.018;2023-12-20T02:11:38;5.20;99.90
23803;DHT22;12082;51.786;6.018;2023-12-20T02:14:03;5.30;99.90
23803;DHT22;12082;51.786;6.018;2023-12-20T02:16:29;5.30;99.90
23803;DHT22;12082;51.786;6.018;2023-12-20T02:18:55;5.30;99.90
23803;DHT22;12082;51.786;6.018;2023-12-20T02:21:25;5.30;99.90
23803;DHT22;12082;51.786;6.018;2023-12-20T02:23:50;5.30;99.90
23803;DHT22;12082;51.786;6.018;2023-12-20T02:26:16;5.30;99.90
23803;DHT22;12082;51.786;6.018;2023-12-20T02:28:42;5.30;99.90
23803;DHT22;12082;51.786;6.018;2023-12-20T02:31:07;5.30;99.90
23803;DHT22;12082;51.786;6.018;2023-12-20T02:33:33;5.30;99.90
23803;DHT22;12082;51.786;6.018;2023-12-20T02:35:59;5.30;99.90
23803;DHT22;12082;51.786;6.018;2023-12-20T02:38:24;5.30;99.90
23803;DHT22;12082;51.786;6.018;2023-12-20T02:40:50;5.30;99.90
23803;DHT22;12082;51.786;6.018;2023-12-20T02:43:15;5.40;99.90
23803;DHT22;12082;51.786;6.018;2023-12-20T02:45:41;5.30;99.90
23803;DHT22;12082;51.786;6.018;2023-12-20T02:48:07;5.30;99.90
23803;DHT22;12082;51.786;6.018;2023-12-20T02:50:32;5.40;99.90
23803;DHT22;12082;51.786;6.018;2023-12-20T02:52:58;5.40;99.90
23803;DHT22;12082;51.786;6.018;2023-12-20T02:55:23;5.40;99.90
23803;DHT22;12082;51.786;6.018;2023-12-20T02:57:49;5.30;99.90
23803;DHT22;12082;51.786;6.018;2023-12-20T03:00:14;5.40;99.90
23803;DHT22;12082;51.786;6.018;2023-12-20T03:02:40;5.40;99.90
23803;DHT22;12082;51.786;6.018;2023-12-20T03:05:06;5.40;99.90
23803;DHT22;12082;51.786;6.018;2023-12-20T03:07:31;5.40;99.90
23803;DHT22;12082;51.786;6.018;2023-12-20T03:09:57;5.40;99.90
23803;DHT22;12082;51.786;6.018;2023-12-20T03:12:23;5.40;99.90
23803;DHT22;12082;51.786;6.018;2023-12-20T03:14:48;5.40;99.90
23803;DHT22;12082;51.786;6.018;2023-12-20T03:17:15;5.30;99.90
23803;DHT22;12082;51.786;6.018;2023-12-20T03:19:40;5.30;99.90
23803;DHT22;12082;51.786;6.018;2023-12-20T03:22:06;5.30;99.90
23803;DHT22;12082;51.786;6.018;2023-12-20T03:24:31;5.40;99.90
23803;DHT22;12082;51.786;6.018;2023-12-20T03:26:57;5.40;99.90
23803;DHT22;12082;51.786;6.018;2023-12-20T03:29:22;5.40;99.90
23803;DHT22;12082;51.786;6.018;2023-12-20T03:31:48;5.50;99.90
23803;DHT22;12082;51.786;6.018;2023-12-20T03:34:13;5.40;99.90
23803;DHT22;12082;51.786;6.018;2023-12-20T03:36:39;5.40;99.90
23803;DHT22;12082;51.786;6.018;2023-12-20T03:39:05;5.30;99.90
23803;DHT22;12082;51.786;6.018;2023-12-20T03:41:30;5.30;99.90
23803;DHT22;12082;51.786;6.018;2023-12-20T03:43:56;5.30;99.90
23803;DHT22;12082;51.786;6.018;2023-12-20T03:46:21;5.30;99.90
23803;DHT22;12082;51.786;6.018;2023-12-20T03:48:47;5.40;99.90
23803;DHT22;12082;51.786;6.018;2023-12-20T03:51:13;5.50;99.90
23803;DHT22;12082;51.786;6.018;2023-12-20T03:53:38;5.50;99.90
23803;DHT22;12082;51.786;6.018;2023-12-20T03:56:06;5.50;99.90
23803;DHT22;12082;51.786;6.018;2023-12-20T03:58:31;5.50;99.90
23803;DHT22;12082;51.786;6.018;2023-12-20T04:00:57;5.40;99.90
23803;DHT22;12082;51.786;6.018;2023-12-20T04:03:22;5.40;99.90
23803;DHT22;12082;51.786;6.018;2023-12-20T04:05:48;5.50;99.90
23803;DHT22;12082;51.786;6.018;2023-12-20T04:08:13;5.50;99.90
23803;DHT22;12082;51.786;6.018;2023-12-20T04:10:39;5.50;99.90
23803;DHT22;12082;51.786;6.018;2023-12-20T04:13:05;5.50;99.90
23803;DHT22;12082;51.786;6.018;2023-12-20T04:15:30;5.50;99.90
23803;DHT22;12082;51.786;6.018;2023-12-20T04:17:56;5.50;99.90
23803;DHT22;12082;51.786;6.018;2023-12-20T04:20:21;5.50;99.90
23803;DHT22;12082;51.786;6.018;2023-12-20T04:22:47;5.50;99.90
23803;DHT22;12082;51.786;6.018;2023-12-20T04:25:12;5.50;99.90
23803;DHT22;12082;51.786;6.018;2023-12-20T04:27:38;5.50;99.90
23803;DHT22;12082;51.786;6.018;2023-12-20T04:30:04;5.50;99.90
23803;DHT22;12082;51.786;6.018;2023-12-20T04:32:29;5.50;99.90
23803;DHT22;12082;51.786;6.018;2023-12-20T04:34:55;5.60;99.90
23803;DHT22;12082;51.786;6.018;2023-12-20T04:37:20;5.60;99.90
23803;DHT22;12082;51.786;6.018;2023-12-20T04:39:46;5.70;99.90
23803;DHT22;12082;51.786;6.018;2023-12-20T04:42:12;5.60;99.90
23803;DHT22;12082;51.786;6.018;2023-12-20T04:44:37;5.60;99.90
23803;DHT22;12082;51.786;6.018;2023-12-20T04:47:03;5.60;99.90
23803;DHT22;12082;51.786;6.018;2023-12-20T04:49:28;5.60;99.90
23803;DHT22;12082;51.786;6.018;2023-12-20T04:51:54;5.60;99.90
23803;DHT22;12082;51.786;6.018;2023-12-20T04:54:19;5.70;99.90
23803;DHT22;12082;51.786;6.018;2023-12-20T04:56:45;5.70;99.90
23803;DHT22;12082;51.786;6.018;2023-12-20T04:59:11;5.70;99.90
23803;DHT22;12082;51.786;6.018;2023-12-20T05:01:36;5.70;99.90
23803;DHT22;12082;51.786;6.018;2023-12-20T05:04:02;5.70;99.90
23803;DHT22;12082;51.786;6.018;2023-12-20T05:06:27;5.80;99.90
23803;DHT22;12082;51.786;6.018;2023-12-20T05:08:53;5.80;99.90
23803;DHT22;12082;51.786;6.018;2023-12-20T05:11:18;5.90;99.90
23803;DHT22;12082;51.786;6.018;2023-12-20T05:13:44;5.90;99.90
23803;DHT22;12082;51.786;6.018;2023-12-20T05:16:09;5.90;99.90
23803;DHT22;12082;51.786;6.018;2023-12-20T05:18:35;5.90;99.90
23803;DHT22;12082;51.786;6.018;2023-12-20T05:21:00;5.90;99.90
23803;DHT22;12082;51.786;6.018;2023-12-20T05:23:26;6.00;99.90
23803;DHT22;12082;51.786;6.018;2023-12-20T05:25:52;5.90;99.90
23803;DHT22;12082;51.786;6.018;2023-12-20T05:28:17;6.00;99.90
23803;DHT22;12082;51.786;6.018;2023-12-20T05:30:43;6.00;99.90
23803;DHT22;12082;51.786;6.018;2023-12-20T05:33:08;6.00;99.90
23803;DHT22;12082;51.786;6.018;2023-12-20T05:35:34;6.00;99.90
23803;DHT22;12082;51.786;6.018;2023-12-20T05:38:00;6.00;99.90
23803;DHT22;12082;51.786;6.018;2023-12-20T05:40:25;6.10;99.90
23803;DHT22;12082;51.786;6.018;2023-12-20T05:42:51;6.00;99.90
23803;DHT22;12082;51.786;6.018;2023-12-20T05:45:16;6.10;99.90
23803;DHT22;12082;51.786;6.018;2023-12-20T05:47:42;6.10;99.90
23803;DHT22;12082;51.786;6.018;2023-12-20T05:50:08;6.00;99.90
23803;DHT22;12082;51.786;6.018;2023-12-20T05:52:34;6.10;99.90
23803;DHT22;12082;51.786;6.018;2023-12-20T05:55:00;6.10;99.90
23803;DHT22;12082;51.786;6.018;2023-12-20T05:57:27;6.10;99.90
23803;DHT22;12082;51.786;6.018;2023-12-20T05:59:52;6.20;99.90
23803;DHT22;12082;51.786;6.018;2023-12-20T06:02:18;6.20;99.90
23803;DHT22;12082;51.786;6.018;2023-12-20T06:04:44;6.20;99.90
23803;DHT22;12082;51.786;6.018;2023-12-20T06:07:13;6.30;99.90
23803;DHT22;12082;51.786;6.018;2023-12-20T06:09:39;6.40;99.90
23803;DHT22;12082;51.786;6.018;2023-12-20T06:12:06;6.40;99.90
23803;DHT22;12082;51.786;6.018;2023-12-20T06:14:32;6.40;99.90
23803;DHT22;12082;51.786;6.018;2023-12-20T06:16:58;6.50;99.90
23803;DHT22;12082;51.786;6.018;2023-12-20T06:19:24;6.50;99.90
23803;DHT22;12082;51.786;6.018;2023-12-20T06:21:50;6.50;99.90
23803;DHT22;12082;51.786;6.018;2023-12-20T06:24:15;6.50;99.90
23803;DHT22;12082;51.786;6.018;2023-12-20T06:26:41;6.50;99.90
23803;DHT22;12082;51.786;6.018;2023-12-20T06:29:06;6.60;99.90
23803;DHT22;12082;51.786;6.018;2023-12-20T06:31:32;6.60;99.90
23803;DHT22;12082;51.786;6.018;2023-12-20T06:33:58;6.60;99.90
23803;DHT22;12082;51.786;6.018;2023-12-20T06:36:25;6.60;99.90
23803;DHT22;12082;51.786;6.018;2023-12-20T06:38:51;6.70;99.90
23803;DHT22;12082;51.786;6.018;2023-12-20T06:41:17;6.70;99.90
23803;DHT22;12082;51.786;6.018;2023-12-20T06:43:43;6.60;99.90
23803;DHT22;12082;51.786;6.018;2023-12-20T06:46:08;6.60;99.90
23803;DHT22;12082;51.786;6.018;2023-12-20T06:48:34;6.70;99.90
23803;DHT22;12082;51.786;6.018;2023-12-20T06:51:01;6.70;99.90
23803;DHT22;12082;51.786;6.018;2023-12-20T06:53:27;6.70;99.90
23803;DHT22;12082;51.786;6.018;2023-12-20T06:55:53;6.60;99.90
23803;DHT22;12082;51.786;6.018;2023-12-20T06:58:19;6.60;99.90
23803;DHT22;12082;51.786;6.018;2023-12-20T07:00:44;6.70;99.90
23803;DHT22;12082;51.786;6.018;2023-12-20T07:03:10;6.70;99.90
23803;DHT22;12082;51.786;6.018;2023-12-20T07:05:35;6.70;99.90
23803;DHT22;12082;51.786;6.018;2023-12-20T07:08:01;6.70;99.90
23803;DHT22;12082;51.786;6.018;2023-12-20T07:10:26;6.70;99.90
23803;DHT22;12082;51.786;6.018;2023-12-20T07:12:52;6.70;99.90
23803;DHT22;12082;51.786;6.018;2023-12-20T07:15:21;6.70;99.90
23803;DHT22;12082;51.786;6.018;2023-12-20T07:17:46;6.70;99.90
23803;DHT22;12082;51.786;6.018;2023-12-20T07:20:12;6.70;99.90
23803;DHT22;12082;51.786;6.018;2023-12-20T07:22:38;6.70;99.90
23803;DHT22;12082;51.786;6.018;2023-12-20T07:25:04;6.70;99.90
23803;DHT22;12082;51.786;6.018;2023-12-20T07:27:30;6.60;99.90
23803;DHT22;12082;51.786;6.018;2023-12-20T07:29:56;6.60;99.90
23803;DHT22;12082;51.786;6.018;2023-12-20T07:32:21;6.70;99.90
23803;DHT22;12082;51.786;6.018;2023-12-20T07:34:47;6.70;99.90
23803;DHT22;12082;51.786;6.018;2023-12-20T07:37:12;6.60;99.90
23803;DHT22;12082;51.786;6.018;2023-12-20T07:39:41;6.70;99.90
23803;DHT22;12082;51.786;6.018;2023-12-20T07:42:07;6.60;99.90
23803;DHT22;12082;51.786;6.018;2023-12-20T07:44:33;6.60;99.90
23803;DHT22;12082;51.786;6.018;2023-12-20T07:46:59;6.50;99.90
23803;DHT22;12082;51.786;6.018;2023-12-20T07:49:26;6.50;99.90
23803;DHT22;12082;51.786;6.018;2023-12-20T07:51:51;6.50;99.90
23803;DHT22;12082;51.786;6.018;2023-12-20T07:54:17;6.50;99.90
23803;DHT22;12082;51.786;6.018;2023-12-20T07:56:42;6.40;99.90
23803;DHT22;12082;51.786;6.018;2023-12-20T07:59:09;6.40;99.90
23803;DHT22;12082;51.786;6.018;2023-12-20T08:01:34;6.50;99.90
23803;DHT22;12082;51.786;6.018;2023-12-20T08:04:00;6.40;99.90
23803;DHT22;12082;51.786;6.018;2023-12-20T08:06:25;6.40;99.90
23803;DHT22;12082;51.786;6.018;2023-12-20T08:08:51;6.40;99.90
23803;DHT22;12082;51.786;6.018;2023-12-20T08:11:16;6.40;99.90
23803;DHT22;12082;51.786;6.018;2023-12-20T08:13:42;6.40;99.90
23803;DHT22;12082;51.786;6.018;2023-12-20T08:16:08;6.60;99.90
23803;DHT22;12082;51.786;6.018;2023-12-20T08:18:34;6.40;99.90
23803;DHT22;12082;51.786;6.018;2023-12-20T08:21:00;6.40;99.90
23803;DHT22;12082;51.786;6.018;2023-12-20T08:23:26;6.50;99.90
23803;DHT22;12082;51.786;6.018;2023-12-20T08:25:52;6.50;99.90
23803;DHT22;12082;51.786;6.018;2023-12-20T08:28:17;6.40;99.90
23803;DHT22;12082;51.786;6.018;2023-12-20T08:30:43;6.50;99.90
23803;DHT22;12082;51.786;6.018;2023-12-20T08:33:08;6.40;99.90
23803;DHT22;12082;51.786;6.018;2023-12-20T08:35:38;6.90;99.90
23803;DHT22;12082;51.786;6.018;2023-12-20T08:38:04;6.50;99.90
23803;DHT22;12082;51.786;6.018;2023-12-20T08:40:30;6.50;99.90
23803;DHT22;12082;51.786;6.018;2023-12-20T08:42:56;6.50;99.90
23803;DHT22;12082;51.786;6.018;2023-12-20T08:45:21;6.50;99.90
23803;DHT22;12082;51.786;6.018;2023-12-20T08:47:47;6.50;99.90
23803;DHT22;12082;51.786;6.018;2023-12-20T08:50:12;6.50;99.90
23803;DHT22;12082;51.786;6.018;2023-12-20T08:52:38;6.50;99.90
23803;DHT22;12082;51.786;6.018;2023-12-20T08:55:04;6.60;99.90
23803;DHT22;12082;51.786;6.018;2023-12-20T08:57:29;6.60;99.90
23803;DHT22;12082;51.786;6.018;2023-12-20T08:59:57;6.60;99.90
23803;DHT22;12082;51.786;6.018;2023-12-20T09:02:22;6.60;99.90
23803;DHT22;12082;51.786;6.018;2023-12-20T09:04:48;6.60;99.90
23803;DHT22;12082;51.786;6.018;2023-12-20T09:07:24;6.60;99.90
23803;DHT22;12082;51.786;6.018;2023-12-20T09:09:50;6.60;99.90
23803;DHT22;12082;51.786;6.018;2023-12-20T09:12:17;6.60;99.90
23803;DHT22;12082;51.786;6.018;2023-12-20T09:14:42;6.70;99.90
23803;DHT22;12082;51.786;6.018;2023-12-20T09:17:08;6.70;99.90
23803;DHT22;12082;51.786;6.018;2023-12-20T09:19:34;6.80;99.90
23803;DHT22;12082;51.786;6.018;2023-12-20T09:22:00;6.80;99.90
23803;DHT22;12082;51.786;6.018;2023-12-20T09:24:26;6.80;99.90
23803;DHT22;12082;51.786;6.018;2023-12-20T09:26:51;6.80;99.90
23803;DHT22;12082;51.786;6.018;2023-12-20T09:29:17;6.80;99.90
23803;DHT22;12082;51.786;6.018;2023-12-20T09:31:44;6.80;99.90
23803;DHT22;12082;51.786;6.018;2023-12-20T09:34:10;6.80;99.90
23803;DHT22;12082;51.786;6.018;2023-12-20T09:36:35;6.90;99.90
23803;DHT22;12082;51.786;6.018;2023-12-20T09:39:02;7.00;99.90
23803;DHT22;12082;51.786;6.018;2023-12-20T09:41:31;7.00;99.90
23803;DHT22;12082;51.786;6.018;2023-12-20T09:44:02;7.10;99.90
23803;DHT22;12082;51.786;6.018;2023-12-20T09:46:29;7.10;99.90
23803;DHT22;12082;51.786;6.018;2023-12-20T09:48:59;7.00;99.90
23803;DHT22;12082;51.786;6.018;2023-12-20T09:51:27;6.90;99.90
23803;DHT22;12082;51.786;6.018;2023-12-20T09:53:54;6.80;99.90
23803;DHT22;12082;51.786;6.018;2023-12-20T09:56:20;6.80;99.90
23803;DHT22;12082;51.786;6.018;2023-12-20T09:58:46;6.80;99.90
23803;DHT22;12082;51.786;6.018;2023-12-20T10:01:12;6.80;99.90
23803;DHT22;12082;51.786;6.018;2023-12-20T10:03:39;6.80;99.90
23803;DHT22;12082;51.786;6.018;2023-12-20T10:06:06;6.80;99.90
23803;DHT22;12082;51.786;6.018;2023-12-20T10:08:32;6.90;99.90
23803;DHT22;12082;51.786;6.018;2023-12-20T10:10:58;6.90;99.90
23803;DHT22;12082;51.786;6.018;2023-12-20T10:13:28;6.90;99.90
23803;DHT22;12082;51.786;6.018;2023-12-20T10:15:55;7.00;99.90
23803;DHT22;12082;51.786;6.018;2023-12-20T10:18:21;7.00;99.90
23803;DHT22;12082;51.786;6.018;2023-12-20T10:20:47;7.00;99.90
23803;DHT22;12082;51.786;6.018;2023-12-20T10:23:13;7.10;99.90
23803;DHT22;12082;51.786;6.018;2023-12-20T10:25:39;7.10;99.90
23803;DHT22;12082;51.786;6.018;2023-12-20T10:28:15;7.10;99.90
23803;DHT22;12082;51.786;6.018;2023-12-20T10:30:46;7.20;99.90
23803;DHT22;12082;51.786;6.018;2023-12-20T10:33:12;7.20;99.90
23803;DHT22;12082;51.786;6.018;2023-12-20T10:35:38;7.30;99.90
23803;DHT22;12082;51.786;6.018;2023-12-20T10:38:05;7.30;99.90
23803;DHT22;12082;51.786;6.018;2023-12-20T10:40:31;7.30;99.90
23803;DHT22;12082;51.786;6.018;2023-12-20T10:42:58;7.40;99.90
23803;DHT22;12082;51.786;6.018;2023-12-20T10:45:24;7.30;99.90
23803;DHT22;12082;51.786;6.018;2023-12-20T10:47:51;7.40;99.90
23803;DHT22;12082;51.786;6.018;2023-12-20T10:50:19;7.40;99.90
23803;DHT22;12082;51.786;6.018;2023-12-20T10:52:46;7.30;99.90
23803;DHT22;12082;51.786;6.018;2023-12-20T10:55:12;7.40;99.90
23803;DHT22;12082;51.786;6.018;2023-12-20T10:57:38;7.40;99.90
23803;DHT22;12082;51.786;6.018;2023-12-20T11:00:06;7.40;99.90
23803;DHT22;12082;51.786;6.018;2023-12-20T11:02:39;7.30;99.90
23803;DHT22;12082;51.786;6.018;2023-12-20T11:08:29;7.20;99.90
23803;DHT22;12082;51.786;6.018;2023-12-20T11:11:23;7.20;99.90
23803;DHT22;12082;51.786;6.018;2023-12-20T11:14:01;7.20;99.90
23803;DHT22;12082;51.786;6.018;2023-12-20T11:16:28;7.20;99.90
23803;DHT22;12082;51.786;6.018;2023-12-20T11:18:53;7.30;99.90
23803;DHT22;12082;51.786;6.018;2023-12-20T11:21:19;7.30;99.90
23803;DHT22;12082;51.786;6.018;2023-12-20T11:23:45;7.40;99.90
23803;DHT22;12082;51.786;6.018;2023-12-20T11:26:11;7.40;99.90
23803;DHT22;12082;51.786;6.018;2023-12-20T11:28:40;7.50;99.90
23803;DHT22;12082;51.786;6.018;2023-12-20T11:31:06;7.60;99.90
23803;DHT22;12082;51.786;6.018;2023-12-20T11:33:36;7.60;99.90
23803;DHT22;12082;51.786;6.018;2023-12-20T11:36:02;7.70;99.90
23803;DHT22;12082;51.786;6.018;2023-12-20T11:38:36;7.70;99.90
23803;DHT22;12082;51.786;6.018;2023-12-20T11:41:05;7.80;99.90
23803;DHT22;12082;51.786;6.018;2023-12-20T11:43:37;7.80;99.90
23803;DHT22;12082;51.786;6.018;2023-12-20T11:46:07;7.90;99.90
23803;DHT22;12082;51.786;6.018;2023-12-20T11:48:34;8.00;99.90
23803;DHT22;12082;51.786;6.018;2023-12-20T11:51:00;8.00;99.90
23803;DHT22;12082;51.786;6.018;2023-12-20T11:53:26;8.00;99.90
23803;DHT22;12082;51.786;6.018;2023-12-20T11:55:51;8.00;99.90
23803;DHT22;12082;51.786;6.018;2023-12-20T11:58:18;8.00;99.90
23803;DHT22;12082;51.786;6.018;2023-12-20T12:00:44;8.10;99.90
23803;DHT22;12082;51.786;6.018;2023-12-20T12:03:10;8.10;99.90
23803;DHT22;12082;51.786;6.018;2023-12-20T12:05:35;8.10;99.90
23803;DHT22;12082;51.786;6.018;2023-12-20T12:08:02;8.10;99.90
23803;DHT22;12082;51.786;6.018;2023-12-20T12:10:29;8.10;99.90
23803;DHT22;12082;51.786;6.018;2023-12-20T12:12:55;8.10;99.90
23803;DHT22;12082;51.786;6.018;2023-12-20T12:15:20;8.10;99.90
23803;DHT22;12082;51.786;6.018;2023-12-20T12:17:56;8.10;99.90
23803;DHT22;12082;51.786;6.018;2023-12-20T12:20:23;8.10;99.90
23803;DHT22;12082;51.786;6.018;2023-12-20T12:22:59;8.10;99.90
23803;DHT22;12082;51.786;6.018;2023-12-20T12:25:25;8.20;99.90
23803;DHT22;12082;51.786;6.018;2023-12-20T12:27:51;8.20;99.90
23803;DHT22;12082;51.786;6.018;2023-12-20T12:30:17;8.20;99.90
23803;DHT22;12082;51.786;6.018;2023-12-20T12:32:44;8.20;99.90
23803;DHT22;12082;51.786;6.018;2023-12-20T12:35:10;8.20;99.90
23803;DHT22;12082;51.786;6.018;2023-12-20T12:37:38;8.10;99.90
23803;DHT22;12082;51.786;6.018;2023-12-20T12:42:35;8.10;99.90
23803;DHT22;12082;51.786;6.018;2023-12-20T12:45:01;8.00;99.90
23803;DHT22;12082;51.786;6.018;2023-12-20T12:47:26;7.90;99.90
23803;DHT22;12082;51.786;6.018;2023-12-20T12:49:52;7.90;99.90
23803;DHT22;12082;51.786;6.018;2023-12-20T12:52:20;7.90;99.90
23803;DHT22;12082;51.786;6.018;2023-12-20T12:54:46;8.00;99.90
23803;DHT22;12082;51.786;6.018;2023-12-20T12:57:13;8.00;99.90
23803;DHT22;12082;51.786;6.018;2023-12-20T12:59:39;8.10;99.90
23803;DHT22;12082;51.786;6.018;2023-12-20T13:02:05;8.10;99.90
23803;DHT22;12082;51.786;6.018;2023-12-20T13:04:30;8.10;99.90
23803;DHT22;12082;51.786;6.018;2023-12-20T13:06:56;8.10;99.90
23803;DHT22;12082;51.786;6.018;2023-12-20T13:09:22;8.10;99.90
23803;DHT22;12082;51.786;6.018;2023-12-20T13:11:48;8.00;99.90
23803;DHT22;12082;51.786;6.018;2023-12-20T13:14:14;7.90;99.90
23803;DHT22;12082;51.786;6.018;2023-12-20T13:16:41;7.90;99.90
23803;DHT22;12082;51.786;6.018;2023-12-20T13:19:07;7.90;99.90
23803;DHT22;12082;51.786;6.018;2023-12-20T13:21:32;7.80;99.90
23803;DHT22;12082;51.786;6.018;2023-12-20T13:23:58;7.90;99.90
23803;DHT22;12082;51.786;6.018;2023-12-20T13:26:23;7.80;99.90
23803;DHT22;12082;51.786;6.018;2023-12-20T13:28:49;7.90;99.90
23803;DHT22;12082;51.786;6.018;2023-12-20T13:31:14;7.80;99.90
23803;DHT22;12082;51.786;6.018;2023-12-20T13:33:40;7.90;99.90
23803;DHT22;12082;51.786;6.018;2023-12-20T13:36:06;7.90;99.90
23803;DHT22;12082;51.786;6.018;2023-12-20T13:38:32;7.90;99.90
23803;DHT22;12082;51.786;6.018;2023-12-20T13:40:57;7.90;99.90
23803;DHT22;12082;51.786;6.018;2023-12-20T13:43:24;8.00;99.90
23803;DHT22;12082;51.786;6.018;2023-12-20T13:45:50;7.90;99.90
23803;DHT22;12082;51.786;6.018;2023-12-20T13:48:16;7.90;99.90
23803;DHT22;12082;51.786;6.018;2023-12-20T13:50:41;7.90;99.90
23803;DHT22;12082;51.786;6.018;2023-12-20T13:53:07;7.90;99.90
23803;DHT22;12082;51.786;6.018;2023-12-20T13:55:33;7.90;99.90
23803;DHT22;12082;51.786;6.018;2023-12-20T13:57:58;7.90;99.90
23803;DHT22;12082;51.786;6.018;2023-12-20T14:00:24;7.90;99.90
23803;DHT22;12082;51.786;6.018;2023-12-20T14:02:49;7.90;99.90
23803;DHT22;12082;51.786;6.018;2023-12-20T14:05:16;7.90;99.90
23803;DHT22;12082;51.786;6.018;2023-12-20T14:07:43;7.90;99.90
23803;DHT22;12082;51.786;6.018;2023-12-20T14:10:13;8.00;99.90
23803;DHT22;12082;51.786;6.018;2023-12-20T14:12:39;8.00;99.90
23803;DHT22;12082;51.786;6.018;2023-12-20T14:15:05;8.00;99.90
23803;DHT22;12082;51.786;6.018;2023-12-20T14:17:39;8.10;99.90
23803;DHT22;12082;51.786;6.018;2023-12-20T14:20:08;8.10;99.90
23803;DHT22;12082;51.786;6.018;2023-12-20T14:22:34;8.10;99.90
23803;DHT22;12082;51.786;6.018;2023-12-20T14:25:01;8.10;99.90
23803;DHT22;12082;51.786;6.018;2023-12-20T14:27:27;8.10;99.90
23803;DHT22;12082;51.786;6.018;2023-12-20T14:29:55;8.20;99.90
23803;DHT22;12082;51.786;6.018;2023-12-20T14:32:21;8.10;99.90
23803;DHT22;12082;51.786;6.018;2023-12-20T14:34:46;8.10;99.90
23803;DHT22;12082;51.786;6.018;2023-12-20T14:37:12;8.10;99.90
23803;DHT22;12082;51.786;6.018;2023-12-20T14:39:38;8.10;99.90
23803;DHT22;12082;51.786;6.018;2023-12-20T14:42:10;8.10;99.90
23803;DHT22;12082;51.786;6.018;2023-12-20T14:44:42;8.10;99.90
23803;DHT22;12082;51.786;6.018;2023-12-20T14:47:08;8.00;99.90
23803;DHT22;12082;51.786;6.018;2023-12-20T14:49:33;8.00;99.90
23803;DHT22;12082;51.786;6.018;2023-12-20T14:51:59;7.90;99.90
23803;DHT22;12082;51.786;6.018;2023-12-20T14:54:26;7.90;99.90
23803;DHT22;12082;51.786;6.018;2023-12-20T14:56:51;7.90;99.90
23803;DHT22;12082;51.786;6.018;2023-12-20T14:59:17;7.90;99.90
23803;DHT22;12082;51.786;6.018;2023-12-20T15:01:43;8.00;99.90
23803;DHT22;12082;51.786;6.018;2023-12-20T15:04:09;8.00;99.90
23803;DHT22;12082;51.786;6.018;2023-12-20T15:06:36;8.00;99.90
23803;DHT22;12082;51.786;6.018;2023-12-20T15:09:01;8.10;99.90
23803;DHT22;12082;51.786;6.018;2023-12-20T15:11:30;8.10;99.90
23803;DHT22;12082;51.786;6.018;2023-12-20T15:13:56;8.20;99.90
23803;DHT22;12082;51.786;6.018;2023-12-20T15:16:23;8.20;99.90
23803;DHT22;12082;51.786;6.018;2023-12-20T15:18:49;8.20;99.90
23803;DHT22;12082;51.786;6.018;2023-12-20T15:21:16;8.20;99.90
23803;DHT22;12082;51.786;6.018;2023-12-20T15:23:41;8.20;99.90
23803;DHT22;12082;51.786;6.018;2023-12-20T15:26:21;8.20;99.90
23803;DHT22;12082;51.786;6.018;2023-12-20T15:28:47;8.20;99.90
23803;DHT22;12082;51.786;6.018;2023-12-20T15:31:12;8.20;99.90
23803;DHT22;12082;51.786;6.018;2023-12-20T15:33:39;8.20;99.90
23803;DHT22;12082;51.786;6.018;2023-12-20T15:36:05;8.20;99.90
23803;DHT22;12082;51.786;6.018;2023-12-20T15:38:31;8.20;99.90
23803;DHT22;12082;51.786;6.018;2023-12-20T15:40:56;8.20;99.90
23803;DHT22;12082;51.786;6.018;2023-12-20T15:43:22;8.20;99.90